Time;durP1;ratioP1;P1;durP2;ratioP2;P2;SDS_P1;SDS_P2;PMS_P1;PMS_P2;Temp;Humidity;BMP_temperature;BMP_pressure;BME280_temperature;BME280_humidity;BME280_pressure;Samples;Min_cycle;Max_cycle;Signal;HPM_P1;HPM_P2
2022/03/12 00:01:48;;;;;;;9.20;3.35;;;1.70;39.30;;;;;;4787630;29;20044;-76
2022/03/12 00:04:16;;;;;;;10.00;3.55;;;1.80;39.50;;;;;;4807449;29;20047;-76
2022/03/12 00:06:43;;;;;;;11.40;3.03;;;1.80;39.30;;;;;;4806444;29;20049;-77
2022/03/12 00:09:10;;;;;;;12.48;3.60;;;1.70;39.00;;;;;;4806800;29;20042;-76
2022/03/12 00:11:46;;;;;;;12.88;4.63;;;1.70;38.80;;;;;;4806857;29;20142;-76
2022/03/12 00:14:15;;;;;;;13.60;4.07;;;1.80;39.80;;;;;;4793571;29;20756;-76
2022/03/12 00:16:43;;;;;;;14.68;3.90;;;1.60;39.60;;;;;;4808662;29;20043;-76
2022/03/12 00:19:11;;;;;;;15.80;3.88;;;1.30;39.80;;;;;;4791650;29;20054;-76
2022/03/12 00:21:41;;;;;;;10.98;3.63;;;1.30;41.00;;;;;;4808433;29;20054;-76
2022/03/12 00:24:12;;;;;;;11.40;3.83;;;1.20;41.50;;;;;;4809653;29;20067;-76
2022/03/12 00:26:42;;;;;;;8.98;3.00;;;1.30;41.10;;;;;;4793267;29;20078;-77
2022/03/12 00:29:14;;;;;;;10.57;2.58;;;1.30;40.40;;;;;;4792458;29;20062;-76
2022/03/12 00:31:45;;;;;;;11.63;3.15;;;1.40;40.00;;;;;;4793604;29;20046;-76
2022/03/12 00:34:13;;;;;;;12.15;3.13;;;1.30;40.90;;;;;;4791324;29;20114;-77
2022/03/12 00:36:42;;;;;;;11.93;3.50;;;1.30;41.60;;;;;;4822794;29;20061;-76
2022/03/12 00:39:12;;;;;;;10.65;3.05;;;1.30;41.30;;;;;;4824461;29;20051;-77
2022/03/12 00:41:42;;;;;;;12.43;3.45;;;1.30;41.90;;;;;;4809187;29;20122;-77
2022/03/12 00:44:17;;;;;;;8.00;2.78;;;1.20;41.60;;;;;;4809389;29;20515;-76
2022/03/12 00:46:45;;;;;;;9.02;2.65;;;1.00;42.10;;;;;;4825904;29;20050;-76
2022/03/12 00:49:13;;;;;;;14.57;3.95;;;1.00;42.50;;;;;;4795534;29;20081;-76
2022/03/12 00:51:41;;;;;;;10.93;4.18;;;1.00;42.80;;;;;;4806901;29;20521;-76
2022/03/12 00:54:09;;;;;;;12.65;4.53;;;0.90;42.90;;;;;;4792081;29;20509;-76
2022/03/12 00:56:39;;;;;;;11.88;4.78;;;0.80;43.00;;;;;;4809507;29;20078;-76
2022/03/12 00:59:07;;;;;;;13.95;4.93;;;0.90;42.80;;;;;;4809235;29;20054;-76
2022/03/12 01:01:34;;;;;;;10.60;3.35;;;0.90;43.70;;;;;;4805761;29;20058;-76
2022/03/12 01:04:04;;;;;;;10.60;2.95;;;1.00;43.20;;;;;;4793398;29;20071;-76
2022/03/12 01:06:34;;;;;;;6.95;2.25;;;1.00;42.90;;;;;;4812823;29;20045;-76
2022/03/12 01:09:01;;;;;;;9.27;3.15;;;1.10;42.60;;;;;;4809211;29;20826;-76
2022/03/12 01:11:29;;;;;;;9.57;2.45;;;1.10;42.40;;;;;;4810408;29;20077;-76
2022/03/12 01:13:56;;;;;;;6.22;2.33;;;1.00;42.60;;;;;;4813161;29;20039;-76
2022/03/12 01:16:23;;;;;;;12.57;2.90;;;0.90;43.30;;;;;;4810592;29;20057;-76
2022/03/12 01:18:50;;;;;;;12.18;2.50;;;0.80;43.30;;;;;;4793565;29;20058;-77
2022/03/12 01:21:19;;;;;;;17.08;5.18;;;0.80;44.10;;;;;;4796157;29;20050;-76
2022/03/12 01:23:48;;;;;;;22.92;6.18;;;0.90;43.70;;;;;;4812556;29;20066;-76
2022/03/12 01:26:17;;;;;;;22.02;6.57;;;0.90;43.10;;;;;;4811869;29;20047;-76
2022/03/12 01:28:45;;;;;;;14.20;4.30;;;0.90;43.10;;;;;;4810812;29;20051;-76
2022/03/12 01:31:13;;;;;;;13.50;4.47;;;1.00;42.60;;;;;;4811114;29;20050;-77
2022/03/12 01:33:41;;;;;;;18.85;5.28;;;0.60;43.10;;;;;;4797535;29;20043;-77
2022/03/12 01:36:08;;;;;;;14.32;5.22;;;1.10;42.50;;;;;;4812195;29;20046;-76
2022/03/12 01:38:53;;;;;;;25.23;8.23;;;1.30;42.60;;;;;;4826196;29;20115;-76
2022/03/12 01:41:32;;;;;;;26.90;7.07;;;1.10;42.30;;;;;;4810267;29;20055;-77
2022/03/12 01:44:02;;;;;;;14.70;5.00;;;1.00;42.00;;;;;;4804912;29;20053;-75
2022/03/12 01:46:35;;;;;;;12.27;3.33;;;1.10;42.00;;;;;;4791871;29;20050;-76
2022/03/12 01:49:09;;;;;;;9.23;3.03;;;1.20;41.60;;;;;;4791546;29;20144;-76
2022/03/12 01:51:41;;;;;;;11.32;3.22;;;0.90;42.00;;;;;;4810053;29;20054;-76
2022/03/12 01:54:09;;;;;;;8.88;3.13;;;1.00;42.00;;;;;;4826395;29;20074;-77
2022/03/12 01:56:38;;;;;;;11.85;4.00;;;1.10;41.70;;;;;;4808686;29;20050;-77
2022/03/12 01:59:06;;;;;;;11.88;3.45;;;1.30;41.70;;;;;;4810081;29;20057;-77
2022/03/12 02:01:33;;;;;;;12.13;2.88;;;1.30;41.70;;;;;;4825439;29;20058;-77
2022/03/12 02:04:06;;;;;;;10.75;2.53;;;1.20;41.50;;;;;;4804589;29;20050;-76
2022/03/12 02:07:07;;;;;;;15.27;2.75;;;1.20;41.60;;;;;;4806308;29;20110;-77
2022/03/12 02:09:34;;;;;;;23.90;5.63;;;1.30;41.80;;;;;;4794811;29;21200;-76
2022/03/12 02:12:01;;;;;;;25.85;6.35;;;1.30;41.60;;;;;;4807664;29;20130;-75
2022/03/12 02:14:28;;;;;;;26.27;7.95;;;1.30;41.70;;;;;;4791469;29;20183;-77
2022/03/12 02:17:00;;;;;;;27.05;6.95;;;1.30;41.90;;;;;;4794315;29;20046;-76
2022/03/12 02:19:30;;;;;;;17.35;5.82;;;1.20;41.80;;;;;;4791623;29;20791;-77
2022/03/12 02:22:05;;;;;;;23.92;6.05;;;1.10;41.70;;;;;;4778996;29;20058;-77
2022/03/12 02:24:35;;;;;;;14.63;3.63;;;1.10;41.70;;;;;;4794798;29;20398;-77
2022/03/12 02:27:05;;;;;;;13.45;3.47;;;1.00;42.20;;;;;;4779113;29;20049;-76
2022/03/12 02:29:33;;;;;;;11.32;2.80;;;1.10;41.90;;;;;;4795336;29;20066;-76
2022/03/12 02:32:03;;;;;;;9.27;3.30;;;1.10;41.80;;;;;;4813083;29;20768;-76
2022/03/12 02:34:42;;;;;;;16.00;3.90;;;1.10;41.80;;;;;;4811559;29;20046;-76
2022/03/12 02:37:11;;;;;;;11.18;2.70;;;1.00;42.10;;;;;;4795776;29;20054;-76
2022/03/12 02:39:39;;;;;;;12.55;3.08;;;1.00;42.20;;;;;;4793733;29;20070;-77
2022/03/12 02:42:07;;;;;;;9.65;2.30;;;1.00;42.40;;;;;;4807568;29;20115;-77
2022/03/12 02:44:35;;;;;;;9.02;1.75;;;0.90;42.70;;;;;;4809800;29;20093;-76
2022/03/12 02:47:22;;;;;;;6.32;2.03;;;0.90;42.70;;;;;;4810156;29;20077;-77
2022/03/12 02:49:53;;;;;;;4.97;2.55;;;0.90;43.30;;;;;;4793519;29;20054;-76
2022/03/12 02:52:22;;;;;;;8.05;2.42;;;0.80;42.90;;;;;;4811583;29;20053;-77
2022/03/12 02:54:50;;;;;;;7.97;2.85;;;0.90;43.10;;;;;;4809369;29;20050;-76
2022/03/12 02:57:22;;;;;;;10.15;3.20;;;1.10;42.70;;;;;;4794728;29;20115;-76
2022/03/12 02:59:53;;;;;;;9.73;2.45;;;1.10;42.40;;;;;;4794109;29;20047;-77
2022/03/12 03:02:28;;;;;;;8.48;2.70;;;1.10;42.60;;;;;;4793670;29;20039;-77
2022/03/12 03:04:56;;;;;;;8.43;2.38;;;0.90;42.50;;;;;;4793126;29;20055;-76
2022/03/12 03:07:26;;;;;;;5.75;1.60;;;1.00;42.90;;;;;;4792113;29;20181;-76
2022/03/12 03:09:53;;;;;;;6.53;2.05;;;0.80;43.40;;;;;;4807112;29;20054;-76
2022/03/12 03:12:22;;;;;;;8.75;2.72;;;0.80;43.30;;;;;;4793516;29;20058;-76
2022/03/12 03:14:50;;;;;;;7.85;3.78;;;0.80;42.70;;;;;;4806152;29;20103;-76
2022/03/12 03:17:18;;;;;;;12.75;3.85;;;0.90;43.40;;;;;;4809334;29;20053;-76
2022/03/12 03:19:46;;;;;;;13.52;4.97;;;0.90;43.10;;;;;;4795156;29;20049;-78
2022/03/12 03:22:13;;;;;;;16.08;4.60;;;1.00;42.80;;;;;;4809642;29;20054;-76
2022/03/12 03:24:40;;;;;;;18.13;5.22;;;1.00;42.80;;;;;;4809624;29;20055;-77
2022/03/12 03:27:08;;;;;;;18.42;7.15;;;0.80;43.10;;;;;;4792062;29;20478;-76
2022/03/12 03:29:36;;;;;;;21.13;6.07;;;0.70;43.20;;;;;;4822965;29;20050;-76
2022/03/12 03:32:04;;;;;;;15.95;5.15;;;0.80;43.40;;;;;;4812588;29;20057;-77
2022/03/12 03:34:32;;;;;;;14.63;4.30;;;0.70;43.40;;;;;;4810161;29;20053;-76
2022/03/12 03:36:59;;;;;;;11.65;3.25;;;0.80;43.30;;;;;;4809163;29;20401;-76
2022/03/12 03:39:27;;;;;;;9.95;2.80;;;0.80;43.50;;;;;;4797422;29;20141;-77
2022/03/12 03:41:54;;;;;;;9.80;2.65;;;0.60;43.50;;;;;;4777482;29;20058;-77
2022/03/12 03:44:27;;;;;;;12.23;3.42;;;0.80;43.40;;;;;;4794796;29;20422;-76
2022/03/12 03:46:55;;;;;;;11.57;3.38;;;0.90;42.90;;;;;;4807173;29;20058;-76
2022/03/12 03:49:24;;;;;;;10.20;2.78;;;0.90;42.80;;;;;;4778868;29;20545;-76
2022/03/12 03:51:53;;;;;;;12.63;2.90;;;0.90;43.00;;;;;;4793829;29;20110;-76
2022/03/12 03:54:20;;;;;;;7.03;2.17;;;0.80;43.10;;;;;;4809725;29;20047;-78
2022/03/12 03:56:47;;;;;;;12.15;2.75;;;0.90;42.80;;;;;;4795319;29;20532;-77
2022/03/12 03:59:14;;;;;;;10.45;2.42;;;1.00;42.80;;;;;;4823270;29;20509;-77
2022/03/12 04:01:41;;;;;;;10.10;2.63;;;0.70;43.10;;;;;;4806521;29;20062;-77
2022/03/12 04:04:13;;;;;;;7.15;1.88;;;0.70;43.40;;;;;;4808744;29;20070;-76
2022/03/12 04:06:40;;;;;;;8.10;2.38;;;0.80;42.80;;;;;;4808196;29;20046;-77
2022/03/12 04:09:08;;;;;;;7.72;2.28;;;0.80;42.90;;;;;;4825765;29;20058;-77
2022/03/12 04:11:35;;;;;;;6.72;2.15;;;0.50;43.80;;;;;;4792435;29;20050;-76
2022/03/12 04:14:05;;;;;;;10.98;2.80;;;0.40;43.80;;;;;;4794841;29;20050;-76
2022/03/12 04:16:33;;;;;;;11.00;2.53;;;0.40;44.00;;;;;;4793101;29;20054;-76
2022/03/12 04:19:03;;;;;;;6.35;2.45;;;0.50;44.20;;;;;;4793931;29;20061;-76
2022/03/12 04:21:30;;;;;;;7.75;2.88;;;0.50;43.90;;;;;;4791301;29;20050;-76
2022/03/12 04:23:59;;;;;;;8.15;3.08;;;0.50;43.80;;;;;;4795246;29;20038;-76
2022/03/12 04:26:27;;;;;;;9.65;2.67;;;0.60;43.50;;;;;;4789690;29;20050;-76
2022/03/12 04:28:54;;;;;;;7.72;2.63;;;-0.20;43.30;;;;;;4776065;29;21414;-76
2022/03/12 04:31:21;;;;;;;8.70;3.42;;;0.60;43.90;;;;;;4776879;29;20542;-77
2022/03/12 04:33:48;;;;;;;15.80;3.95;;;0.60;44.00;;;;;;4825460;29;20194;-77
2022/03/12 04:36:15;;;;;;;16.83;5.50;;;0.50;44.10;;;;;;4795450;29;20673;-76
2022/03/12 04:38:42;;;;;;;16.50;4.25;;;0.50;44.30;;;;;;4810330;29;20054;-77
2022/03/12 04:41:11;;;;;;;14.77;5.18;;;0.70;44.10;;;;;;4811159;29;20052;-77
2022/03/12 04:43:38;;;;;;;13.82;4.00;;;0.60;44.30;;;;;;4797884;29;20076;-76
2022/03/12 04:46:05;;;;;;;13.40;3.95;;;0.50;44.10;;;;;;4795464;29;20054;-77
2022/03/12 04:48:32;;;;;;;6.78;2.35;;;0.60;44.10;;;;;;4811553;29;20046;-77
2022/03/12 04:51:00;;;;;;;6.57;2.47;;;0.60;44.20;;;;;;4811847;29;20065;-76
2022/03/12 04:53:28;;;;;;;9.32;2.65;;;0.50;44.10;;;;;;4811946;29;20520;-76
2022/03/12 04:55:55;;;;;;;7.40;2.60;;;0.40;44.10;;;;;;4798049;29;20057;-77
2022/03/12 04:58:22;;;;;;;10.85;2.90;;;0.40;44.30;;;;;;4826365;29;20150;-77
2022/03/12 05:00:50;;;;;;;6.93;2.50;;;0.30;44.30;;;;;;4793936;29;20044;-77
2022/03/12 05:03:20;;;;;;;12.95;3.25;;;0.10;45.00;;;;;;4794745;29;20066;-76
2022/03/12 05:05:50;;;;;;;16.98;4.90;;;0.10;44.90;;;;;;4811067;29;20062;-76
2022/03/12 05:08:20;;;;;;;11.13;4.38;;;0.10;44.90;;;;;;4811902;29;20043;-76
2022/03/12 05:10:51;;;;;;;14.77;4.80;;;0.10;44.90;;;;;;4823201;29;20058;-76
2022/03/12 05:13:27;;;;;;;10.98;4.28;;;-1.00;45.10;;;;;;4811497;29;20043;-77
2022/03/12 05:15:58;;;;;;;12.05;4.22;;;0.10;45.40;;;;;;4795316;29;20046;-76
2022/03/12 05:18:25;;;;;;;13.60;4.43;;;0.00;45.90;;;;;;4795384;29;20061;-78
2022/03/12 05:20:53;;;;;;;14.30;3.30;;;-0.10;46.30;;;;;;4813223;29;20601;-77
2022/03/12 05:23:23;;;;;;;10.32;2.83;;;-0.20;46.30;;;;;;4794997;29;20046;-76
2022/03/12 05:25:53;;;;;;;12.93;3.45;;;-0.20;46.30;;;;;;4797161;29;20046;-77
2022/03/12 05:28:26;;;;;;;8.52;3.10;;;-0.10;46.80;;;;;;4794335;29;20407;-76
2022/03/12 05:30:57;;;;;;;;;;;-0.20;46.80;;;;;;4810621;29;20124;-77
2022/03/12 05:33:25;;;;;;;15.60;4.55;;;-1.00;47.20;;;;;;4809299;29;19966;-76
2022/03/12 05:35:54;;;;;;;16.17;5.13;;;-0.40;48.30;;;;;;4811054;29;20042;-76
2022/03/12 05:38:23;;;;;;;18.00;4.85;;;-0.30;48.30;;;;;;4809137;29;20781;-77
2022/03/12 05:40:51;;;;;;;20.85;4.80;;;-0.40;47.90;;;;;;4797729;29;20049;-76
2022/03/12 05:43:18;;;;;;;15.25;4.78;;;-0.20;47.70;;;;;;4826617;29;20062;-76
2022/03/12 05:45:48;;;;;;;17.10;4.60;;;-0.30;47.80;;;;;;4795419;29;20064;-76
2022/03/12 05:48:16;;;;;;;15.13;4.88;;;-0.30;48.00;;;;;;4825791;29;20060;-75
2022/03/12 05:50:50;;;;;;;13.15;4.45;;;-0.30;48.40;;;;;;4809491;29;20075;-76
2022/03/12 05:53:19;;;;;;;18.33;5.22;;;-0.30;48.80;;;;;;4796127;29;20043;-76
2022/03/12 05:55:48;;;;;;;9.63;3.60;;;-0.20;48.50;;;;;;4827788;29;20044;-76
2022/03/12 05:58:17;;;;;;;13.20;4.65;;;-0.20;48.60;;;;;;4812123;29;20046;-77
2022/03/12 06:00:48;;;;;;;13.30;4.25;;;0.00;47.80;;;;;;4794933;29;20050;-78
2022/03/12 06:03:16;;;;;;;17.70;4.78;;;0.10;47.30;;;;;;4766286;29;20057;-76
2022/03/12 06:05:45;;;;;;;12.55;3.75;;;0.20;48.10;;;;;;4808947;29;20077;-76
2022/03/12 06:08:14;;;;;;;17.45;5.10;;;0.40;47.90;;;;;;4811169;29;20078;-76
2022/03/12 06:10:44;;;;;;;15.77;5.43;;;0.40;46.90;;;;;;4778052;29;20131;-76
2022/03/12 06:13:16;;;;;;;25.00;5.93;;;0.70;46.90;;;;;;4796087;29;20049;-77
2022/03/12 06:15:48;;;;;;;23.88;7.18;;;0.70;46.70;;;;;;4809805;29;20506;-77
2022/03/12 06:18:15;;;;;;;18.33;5.95;;;1.10;46.00;;;;;;4795949;29;20074;-77
2022/03/12 06:20:43;;;;;;;12.35;4.25;;;1.20;45.60;;;;;;4793627;29;20050;-76
2022/03/12 06:23:10;;;;;;;11.75;3.70;;;0.30;45.40;;;;;;4796013;29;20506;-76
2022/03/12 06:25:37;;;;;;;11.52;3.65;;;1.30;45.60;;;;;;4809958;29;20057;-76
2022/03/12 06:28:05;;;;;;;13.43;4.53;;;1.50;45.10;;;;;;4813066;29;20060;-77
2022/03/12 06:30:35;;;;;;;15.18;4.63;;;1.70;44.60;;;;;;4825895;29;20049;-75
2022/03/12 06:33:05;;;;;;;10.10;3.95;;;1.60;44.60;;;;;;4809885;29;20578;-75
2022/03/12 06:35:32;;;;;;;13.70;4.68;;;1.70;44.40;;;;;;4811465;29;20395;-75
2022/03/12 06:38:00;;;;;;;20.20;4.35;;;1.80;44.70;;;;;;4809922;29;20558;-76
2022/03/12 06:40:28;;;;;;;18.23;5.57;;;2.00;44.30;;;;;;4779407;29;20062;-75
2022/03/12 06:42:59;;;;;;;12.32;4.57;;;2.00;44.60;;;;;;4794870;29;20830;-75
2022/03/12 06:45:28;;;;;;;10.70;3.83;;;2.10;43.90;;;;;;4808955;29;20050;-76
2022/03/12 06:47:56;;;;;;;12.10;3.67;;;2.20;44.10;;;;;;4810273;29;20050;-75
2022/03/12 06:50:25;;;;;;;9.13;3.17;;;2.20;44.10;;;;;;4807881;29;20046;-76
2022/03/12 06:52:53;;;;;;;8.02;2.53;;;2.30;43.70;;;;;;4825001;29;20042;-75
2022/03/12 06:55:22;;;;;;;7.68;2.72;;;2.40;43.60;;;;;;4808609;29;20853;-76
2022/03/12 06:57:51;;;;;;;6.18;2.25;;;2.50;43.50;;;;;;4792193;29;20038;-77
2022/03/12 07:00:24;;;;;;;11.15;2.42;;;2.70;43.70;;;;;;4809312;29;20582;-75
2022/03/12 07:02:52;;;;;;;6.18;2.13;;;2.80;43.20;;;;;;4811448;29;20042;-75
2022/03/12 07:05:20;;;;;;;9.15;2.10;;;2.70;42.80;;;;;;4812280;29;20498;-76
2022/03/12 07:07:49;;;;;;;6.35;2.20;;;3.10;43.30;;;;;;4807843;29;20550;-75
2022/03/12 07:10:17;;;;;;;8.30;2.25;;;3.00;43.00;;;;;;4795653;29;20057;-75
2022/03/12 07:12:45;;;;;;;7.90;1.90;;;3.10;43.10;;;;;;4810706;29;20066;-75
2022/03/12 07:15:14;;;;;;;6.07;1.30;;;2.90;42.70;;;;;;4809124;29;20117;-75
2022/03/12 07:17:42;;;;;;;6.43;1.73;;;3.00;42.30;;;;;;4805513;29;20833;-76
2022/03/12 07:20:12;;;;;;;7.65;1.48;;;3.10;42.30;;;;;;4794702;29;20054;-75
2022/03/12 07:22:40;;;;;;;4.30;1.08;;;3.20;42.10;;;;;;4794214;29;20532;-76
2022/03/12 07:25:08;;;;;;;7.05;1.30;;;3.30;41.20;;;;;;4823528;29;20629;-75
2022/03/12 07:27:35;;;;;;;4.75;1.60;;;3.40;41.40;;;;;;4810825;29;20070;-75
2022/03/12 07:30:08;;;;;;;6.53;1.70;;;3.50;41.50;;;;;;4794570;29;20100;-76
2022/03/12 07:32:36;;;;;;;3.78;1.45;;;3.70;40.80;;;;;;4789915;29;20046;-76
2022/03/12 07:35:04;;;;;;;2.72;1.30;;;3.60;40.20;;;;;;4794889;29;20046;-76
2022/03/12 07:37:32;;;;;;;3.67;1.17;;;3.70;40.10;;;;;;4825232;29;20057;-76
2022/03/12 07:39:59;;;;;;;7.85;2.00;;;3.90;40.40;;;;;;4810922;29;20112;-77
2022/03/12 07:42:26;;;;;;;6.65;1.27;;;3.90;40.30;;;;;;4809901;29;20528;-76
2022/03/12 07:44:53;;;;;;;5.07;1.33;;;4.10;40.20;;;;;;4806936;29;20268;-75
2022/03/12 07:47:20;;;;;;;4.80;1.23;;;4.20;39.60;;;;;;4808960;29;20163;-76
2022/03/12 07:49:47;;;;;;;4.55;1.90;;;4.20;39.40;;;;;;4791217;29;20050;-76
2022/03/12 07:52:15;;;;;;;6.88;1.23;;;4.20;39.30;;;;;;4793753;29;20061;-75
2022/03/12 07:54:42;;;;;;;3.22;1.13;;;4.20;38.80;;;;;;4792730;29;20510;-75
2022/03/12 07:57:09;;;;;;;5.75;1.75;;;4.20;39.10;;;;;;4792979;29;20408;-75
2022/03/12 07:59:37;;;;;;;8.00;1.90;;;4.20;38.80;;;;;;4811285;29;20046;-75
2022/03/12 08:02:04;;;;;;;5.20;1.48;;;4.20;38.60;;;;;;4808746;29;20064;-75
2022/03/12 08:04:33;;;;;;;3.10;1.75;;;4.10;38.70;;;;;;4805290;29;20059;-75
2022/03/12 08:07:02;;;;;;;7.45;2.20;;;4.30;39.00;;;;;;4792138;29;20050;-77
2022/03/12 08:09:31;;;;;;;4.68;1.60;;;4.00;38.20;;;;;;4810273;29;20046;-76
2022/03/12 08:11:59;;;;;;;7.53;1.67;;;4.10;38.70;;;;;;4809337;29;20135;-76
2022/03/12 08:14:27;;;;;;;8.10;2.20;;;4.50;39.30;;;;;;4796532;29;20422;-77
2022/03/12 08:16:55;;;;;;;6.57;1.65;;;4.80;38.50;;;;;;4814898;29;20624;-77
2022/03/12 08:19:24;;;;;;;6.82;2.08;;;4.80;36.90;;;;;;4813128;29;20095;-79
2022/03/12 08:21:52;;;;;;;6.25;2.15;;;4.80;37.80;;;;;;4811336;29;20054;-77
2022/03/12 08:24:21;;;;;;;6.50;1.83;;;4.90;37.20;;;;;;4810157;29;20166;-77
2022/03/12 08:26:49;;;;;;;5.95;2.10;;;5.00;36.50;;;;;;4809748;29;20047;-77
2022/03/12 08:29:21;;;;;;;5.78;1.55;;;4.80;35.10;;;;;;4810616;29;20046;-76
2022/03/12 08:31:49;;;;;;;5.25;1.80;;;5.00;35.60;;;;;;4794265;29;20635;-75
2022/03/12 08:34:17;;;;;;;15.48;4.07;;;5.10;36.30;;;;;;4811757;29;20046;-75
2022/03/12 08:36:45;;;;;;;5.72;1.85;;;5.30;36.90;;;;;;4778505;29;20077;-75
2022/03/12 08:39:14;;;;;;;39.35;11.15;;;5.00;35.40;;;;;;4796002;29;20054;-78
2022/03/12 08:41:45;;;;;;;20.08;6.38;;;5.00;36.50;;;;;;4809953;29;20062;-78
2022/03/12 08:44:13;;;;;;;6.03;1.83;;;5.30;36.00;;;;;;4812392;29;20065;-77
2022/03/12 08:46:42;;;;;;;4.65;1.63;;;5.00;35.40;;;;;;4795410;29;20153;-77
2022/03/12 08:49:11;;;;;;;53.90;10.55;;;4.90;35.40;;;;;;4794620;29;20054;-77
2022/03/12 08:51:39;;;;;;;5.50;1.98;;;5.00;35.80;;;;;;4795563;29;20065;-77
2022/03/12 08:54:06;;;;;;;4.88;1.58;;;5.10;34.70;;;;;;4783751;29;20060;-77
2022/03/12 08:56:34;;;;;;;12.07;3.80;;;5.20;35.20;;;;;;4796013;29;20054;-77
2022/03/12 08:59:02;;;;;;;6.80;2.05;;;5.30;34.90;;;;;;4799216;29;20078;-77
2022/03/12 09:01:29;;;;;;;4.57;1.55;;;5.40;34.80;;;;;;4810881;29;20042;-77
2022/03/12 09:03:58;;;;;;;6.15;2.92;;;5.70;35.00;;;;;;4797478;29;22378;-77
2022/03/12 09:06:27;;;;;;;5.03;1.77;;;5.90;34.20;;;;;;4796480;29;20058;-76
2022/03/12 09:08:55;;;;;;;7.20;1.42;;;6.00;32.80;;;;;;4814238;29;20061;-77
2022/03/12 09:11:23;;;;;;;5.25;1.67;;;5.90;32.40;;;;;;4811646;29;20379;-76
2022/03/12 09:13:50;;;;;;;4.45;1.15;;;5.90;33.10;;;;;;4808720;29;20614;-77
2022/03/12 09:16:18;;;;;;;4.75;1.70;;;5.90;32.00;;;;;;4780665;29;20050;-76
2022/03/12 09:18:46;;;;;;;5.25;1.23;;;5.70;32.20;;;;;;4810443;29;20746;-77
2022/03/12 09:21:13;;;;;;;4.43;1.33;;;5.90;33.60;;;;;;4811541;29;20050;-77
2022/03/12 09:23:40;;;;;;;4.80;1.40;;;6.20;32.60;;;;;;4810919;29;20051;-77
2022/03/12 09:26:07;;;;;;;6.65;2.53;;;6.20;31.20;;;;;;4795786;29;20046;-77
2022/03/12 09:28:35;;;;;;;4.57;1.60;;;6.40;31.40;;;;;;4812542;29;20403;-77
2022/03/12 09:31:04;;;;;;;4.05;1.55;;;6.40;31.30;;;;;;4793301;29;20038;-77
2022/03/12 09:33:31;;;;;;;5.45;2.58;;;6.40;31.40;;;;;;4818206;29;20103;-77
2022/03/12 09:35:59;;;;;;;3.80;1.67;;;6.60;31.40;;;;;;4825732;29;20058;-77
2022/03/12 09:38:26;;;;;;;5.07;1.35;;;6.70;30.60;;;;;;4791420;29;20094;-77
2022/03/12 09:40:53;;;;;;;3.22;1.25;;;6.70;30.50;;;;;;4790997;29;20064;-79
2022/03/12 09:43:20;;;;;;;3.05;1.20;;;6.80;29.90;;;;;;4796063;29;21039;-77
2022/03/12 09:45:47;;;;;;;5.72;1.88;;;6.90;30.30;;;;;;4813270;29;20145;-77
2022/03/12 09:48:19;;;;;;;5.38;1.92;;;6.90;30.70;;;;;;4814813;29;20058;-77
2022/03/12 09:50:46;;;;;;;3.80;1.30;;;6.90;31.00;;;;;;4814456;29;20113;-77
2022/03/12 09:53:14;;;;;;;6.45;1.58;;;6.80;30.90;;;;;;4811955;29;20055;-77
2022/03/12 09:55:42;;;;;;;7.20;1.52;;;6.90;31.10;;;;;;4812277;29;20502;-77
2022/03/12 09:58:09;;;;;;;5.93;1.58;;;6.90;30.40;;;;;;4814941;29;20058;-77
2022/03/12 10:00:39;;;;;;;6.18;2.15;;;6.70;30.70;;;;;;4827800;29;20054;-77
2022/03/12 10:03:07;;;;;;;6.28;2.03;;;6.70;30.80;;;;;;4800050;29;20050;-77
2022/03/12 10:05:35;;;;;;;5.43;1.83;;;7.00;31.30;;;;;;4816693;29;20128;-77
2022/03/12 10:08:02;;;;;;;4.90;1.65;;;7.20;30.00;;;;;;4828887;29;20046;-77
2022/03/12 10:10:31;;;;;;;3.35;0.93;;;7.40;30.00;;;;;;4796077;29;20053;-76
2022/03/12 10:12:58;;;;;;;5.18;1.77;;;7.30;29.70;;;;;;4797059;29;20046;-77
2022/03/12 10:15:25;;;;;;;5.55;1.58;;;7.10;30.00;;;;;;4797730;29;20422;-77
2022/03/12 10:17:53;;;;;;;3.90;1.20;;;7.30;29.90;;;;;;4813741;29;20034;-77
2022/03/12 10:20:30;;;;;;;4.93;1.25;;;7.50;30.50;;;;;;4795693;29;20039;-77
2022/03/12 10:22:57;;;;;;;3.97;1.70;;;7.80;31.30;;;;;;4813807;29;20145;-76
2022/03/12 10:25:24;;;;;;;3.40;1.55;;;8.00;29.60;;;;;;4795833;29;20182;-78
2022/03/12 10:27:52;;;;;;;6.40;1.38;;;8.00;29.50;;;;;;4813525;29;20520;-78
2022/03/12 10:30:19;;;;;;;6.78;2.35;;;7.80;29.30;;;;;;4817701;29;20082;-77
2022/03/12 10:32:48;;;;;;;7.50;2.03;;;7.70;29.30;;;;;;4794740;29;20050;-77
2022/03/12 10:35:18;;;;;;;4.18;1.55;;;7.80;30.70;;;;;;4812562;29;20050;-76
2022/03/12 10:37:48;;;;;;;8.30;2.10;;;7.90;29.70;;;;;;4821275;29;20141;-73
2022/03/12 10:40:16;;;;;;;5.43;1.83;;;8.00;29.40;;;;;;4804710;29;20579;-73
2022/03/12 10:42:52;;;;;;;4.60;1.90;;;8.00;29.10;;;;;;4810954;29;20046;-76
2022/03/12 10:45:22;;;;;;;6.28;1.27;;;8.10;29.40;;;;;;4812000;29;20053;-76
2022/03/12 10:47:58;;;;;;;3.05;1.17;;;8.30;29.20;;;;;;4812936;29;20054;-75
2022/03/12 10:50:47;;;;;;;4.68;1.40;;;7.90;29.10;;;;;;4796879;29;20046;-76
2022/03/12 10:53:15;;;;;;;5.30;1.70;;;8.00;29.30;;;;;;4809906;29;20050;-76
2022/03/12 10:55:45;;;;;;;4.18;1.40;;;8.20;29.80;;;;;;4793670;29;20838;-75
2022/03/12 10:58:15;;;;;;;3.83;1.55;;;8.20;28.50;;;;;;4810384;29;20054;-76
2022/03/12 11:00:51;;;;;;;4.55;1.52;;;8.10;29.00;;;;;;4809889;29;20050;-76
2022/03/12 11:03:21;;;;;;;6.05;1.55;;;8.10;29.20;;;;;;4794197;29;20081;-76
2022/03/12 11:05:51;;;;;;;3.72;1.58;;;8.20;29.00;;;;;;4795153;29;20054;-76
2022/03/12 11:08:24;;;;;;;5.10;1.23;;;8.20;28.90;;;;;;4808543;29;20062;-77
2022/03/12 11:11:01;;;;;;;4.43;1.23;;;8.20;29.30;;;;;;4823361;29;20054;-76
2022/03/12 11:13:43;;;;;;;3.65;1.30;;;8.30;28.80;;;;;;4795485;29;20055;-76
2022/03/12 11:16:20;;;;;;;4.50;1.50;;;8.50;29.00;;;;;;4794315;29;20054;-76
2022/03/12 11:18:50;;;;;;;11.10;4.38;;;8.70;29.50;;;;;;4806525;29;20050;-75
2022/03/12 11:21:40;;;;;;;4.57;2.15;;;8.90;29.70;;;;;;4795243;29;20047;-75
2022/03/12 11:24:15;;;;;;;3.05;1.17;;;9.30;28.00;;;;;;4808245;29;20141;-76
2022/03/12 11:26:44;;;;;;;3.70;1.73;;;9.20;28.00;;;;;;4807601;29;20053;-75
2022/03/12 11:29:13;;;;;;;3.95;1.65;;;9.20;28.00;;;;;;4809551;29;20051;-76
2022/03/12 11:31:52;;;;;;;9.57;3.17;;;9.10;27.80;;;;;;4821061;29;20057;-76
2022/03/12 11:34:22;;;;;;;7.38;1.75;;;8.90;29.30;;;;;;4808610;29;20089;-76
2022/03/12 11:37:05;;;;;;;30.33;12.10;;;9.10;29.50;;;;;;4807355;29;20479;-76
2022/03/12 11:39:33;;;;;;;9.73;4.78;;;9.40;29.60;;;;;;4791778;29;20884;-76
2022/03/12 11:42:13;;;;;;;4.65;1.67;;;9.60;28.60;;;;;;4791160;29;20054;-76
2022/03/12 11:44:52;;;;;;;5.85;1.90;;;9.80;27.90;;;;;;4793052;29;20051;-76
2022/03/12 11:47:25;;;;;;;5.13;1.88;;;9.80;27.90;;;;;;4793543;29;20042;-76
2022/03/12 11:49:55;;;;;;;3.85;1.40;;;9.70;27.30;;;;;;4804654;29;20046;-76
2022/03/12 11:52:23;;;;;;;4.57;1.88;;;9.30;28.00;;;;;;4808538;29;20452;-74
2022/03/12 11:54:54;;;;;;;3.30;1.70;;;9.30;28.10;;;;;;4791435;29;20047;-76
2022/03/12 11:57:32;;;;;;;4.47;1.83;;;9.30;28.00;;;;;;4823957;29;20050;-77
2022/03/12 12:00:00;;;;;;;5.65;1.45;;;9.50;28.00;;;;;;4808184;29;20047;-77
2022/03/12 12:02:34;;;;;;;3.92;1.63;;;9.50;27.60;;;;;;4792364;29;20054;-76
2022/03/12 12:05:04;;;;;;;4.40;1.50;;;9.60;28.30;;;;;;4792789;29;20050;-76
2022/03/12 12:07:36;;;;;;;3.85;1.45;;;10.00;28.80;;;;;;4811346;29;20054;-76
2022/03/12 12:10:06;;;;;;;4.90;1.40;;;10.30;27.60;;;;;;4807677;29;20050;-77
2022/03/12 12:12:46;;;;;;;4.47;1.40;;;10.40;27.30;;;;;;4793012;29;20062;-76
2022/03/12 12:15:22;;;;;;;4.75;1.63;;;10.40;27.30;;;;;;4809464;29;20050;-77
2022/03/12 12:17:51;;;;;;;4.35;1.50;;;10.40;27.30;;;;;;4810379;29;20131;-77
2022/03/12 12:20:21;;;;;;;5.60;1.33;;;10.20;26.80;;;;;;4811288;29;20146;-76
2022/03/12 12:22:55;;;;;;;4.15;1.23;;;10.20;27.60;;;;;;4826933;29;20073;-79
2022/03/12 12:25:22;;;;;;;6.28;2.30;;;10.30;27.90;;;;;;4809059;29;20057;-77
2022/03/12 12:27:51;;;;;;;3.08;1.75;;;10.40;27.50;;;;;;4808255;29;20059;-77
2022/03/12 12:30:48;;;;;;;3.15;1.40;;;10.30;28.10;;;;;;4791936;29;20050;-76
2022/03/12 12:33:27;;;;;;;4.88;1.20;;;10.40;27.00;;;;;;4744502;29;20060;-76
2022/03/12 12:36:15;;;;;;;4.65;1.67;;;10.40;27.00;;;;;;4823189;29;20115;-76
2022/03/12 12:39:11;;;;;;;2.53;1.10;;;10.20;28.00;;;;;;4809884;29;20123;-77
2022/03/12 12:41:52;;;;;;;4.50;1.70;;;10.60;27.90;;;;;;4808432;29;20050;-75
2022/03/12 12:44:44;;;;;;;4.68;1.58;;;10.70;27.20;;;;;;4807845;29;20058;-76
2022/03/12 12:47:18;;;;;;;4.68;1.60;;;10.70;28.20;;;;;;4792278;29;20134;-75
2022/03/12 12:49:56;;;;;;;5.47;1.67;;;10.80;27.30;;;;;;4792629;29;20094;-73
2022/03/12 12:52:26;;;;;;;4.53;1.48;;;10.30;27.10;;;;;;4822233;29;20103;-74
2022/03/12 12:54:56;;;;;;;3.50;1.20;;;10.00;27.40;;;;;;4805521;29;20586;-75
2022/03/12 12:57:47;;;;;;;5.57;1.58;;;9.70;27.90;;;;;;4787473;29;20047;-75
2022/03/12 13:00:34;;;;;;;6.20;1.98;;;9.90;28.30;;;;;;4804413;29;20180;-74
2022/03/12 13:03:12;;;;;;;4.30;2.08;;;9.50;27.40;;;;;;4809206;29;20575;-77
2022/03/12 13:05:58;;;;;;;3.33;1.27;;;9.50;27.90;;;;;;4812726;29;20871;-76
2022/03/12 13:08:45;;;;;;;3.42;1.48;;;9.60;28.70;;;;;;4795043;29;20102;-76